createdAt,value
2022-08-18T03:45:36.816Z,17.80
2022-08-18T03:48:03.938Z,17.70
2022-08-18T03:50:32.254Z,17.50
2022-08-18T03:52:59.700Z,17.50
2022-08-18T03:55:29.213Z,17.50
2022-08-18T03:58:02.986Z,17.40
2022-08-18T04:00:32.019Z,17.30
2022-08-18T04:03:02.098Z,17.30
2022-08-18T04:05:29.307Z,17.30
2022-08-18T04:07:57.259Z,17.30
2022-08-18T04:10:25.363Z,17.30
2022-08-18T04:12:52.111Z,17.30
2022-08-18T04:15:18.938Z,17.30
2022-08-18T04:17:56.020Z,17.30
2022-08-18T04:20:34.891Z,17.20
2022-08-18T04:23:01.711Z,17.10
2022-08-18T04:25:32.568Z,17.10
2022-08-18T04:28:02.319Z,17.10
2022-08-18T04:30:29.104Z,17.20
2022-08-18T04:32:55.953Z,17.20
2022-08-18T04:35:23.614Z,17.20
2022-08-18T04:37:50.670Z,17.20
2022-08-18T04:40:22.835Z,17.20
2022-08-18T04:42:51.632Z,17.30
2022-08-18T04:45:18.470Z,17.30
2022-08-18T04:47:45.192Z,17.30
2022-08-18T04:50:12.387Z,17.30
2022-08-18T04:52:57.698Z,17.30
2022-08-18T04:55:24.430Z,17.30
2022-08-18T04:57:51.315Z,17.30
2022-08-18T05:00:19.494Z,17.40
2022-08-18T05:02:46.259Z,17.40
2022-08-18T05:05:13.069Z,17.40
2022-08-18T05:07:46.949Z,17.40
2022-08-18T05:10:17.521Z,17.50
2022-08-18T05:12:47.420Z,17.50
2022-08-18T05:15:14.170Z,17.50
2022-08-18T05:17:40.953Z,17.50
2022-08-18T05:20:08.951Z,17.50
2022-08-18T05:22:43.345Z,17.50
2022-08-18T05:25:12.043Z,17.60
2022-08-18T05:27:42.634Z,17.60
2022-08-18T05:30:11.326Z,17.60
2022-08-18T05:32:48.734Z,17.40
2022-08-18T05:35:30.684Z,17.30
2022-08-18T05:38:05.882Z,17.10
2022-08-18T05:40:33.562Z,17.00
2022-08-18T05:43:00.882Z,16.90
2022-08-18T05:45:27.898Z,16.90
2022-08-18T05:48:02.193Z,17.00
2022-08-18T05:50:32.669Z,17.20
2022-08-18T05:53:13.553Z,17.40
2022-08-18T05:56:07.020Z,17.50
2022-08-18T05:58:44.562Z,17.70
2022-08-18T06:01:22.791Z,17.80
2022-08-18T06:04:15.388Z,18.00
2022-08-18T06:06:47.524Z,18.10
2022-08-18T06:09:22.319Z,18.20
2022-08-18T06:11:50.443Z,18.30
2022-08-18T06:14:17.501Z,18.50
2022-08-18T06:16:58.184Z,18.60
2022-08-18T06:19:54.196Z,18.70
2022-08-18T06:22:48.145Z,18.70
2022-08-18T06:25:33.111Z,18.80
2022-08-18T06:28:14.628Z,18.80
2022-08-18T06:30:47.458Z,18.90
2022-08-18T06:33:34.827Z,18.90
2022-08-18T06:36:37.652Z,19.10
2022-08-18T06:39:22.786Z,19.20
2022-08-18T06:41:51.214Z,19.30
2022-08-18T06:44:20.975Z,19.40
2022-08-18T06:46:55.961Z,19.40
2022-08-18T06:49:31.422Z,19.50
2022-08-18T06:51:58.194Z,19.50
2022-08-18T06:54:28.330Z,19.60
2022-08-18T06:56:57.778Z,19.70
2022-08-18T06:59:29.253Z,19.70
2022-08-18T07:02:19.379Z,19.90
2022-08-18T07:05:07.978Z,20.00
2022-08-18T07:07:40.988Z,20.10
2022-08-18T07:10:13.861Z,20.30
2022-08-18T07:12:41.345Z,20.30
2022-08-18T07:15:12.920Z,20.50
2022-08-18T07:17:42.349Z,20.60
2022-08-18T07:20:25.468Z,20.70
2022-08-18T07:23:08.223Z,20.80
2022-08-18T07:25:45.706Z,20.90
2022-08-18T07:28:31.581Z,20.90
2022-08-18T07:31:24.894Z,20.70
2022-08-18T07:33:58.191Z,20.80
2022-08-18T07:36:30.203Z,21.00
2022-08-18T07:39:07.661Z,21.00
2022-08-18T07:41:41.816Z,21.00
2022-08-18T07:44:27.118Z,21.00
2022-08-18T07:47:02.070Z,21.00
2022-08-18T07:49:35.233Z,21.00
2022-08-18T07:52:36.128Z,21.10
2022-08-18T07:55:28.131Z,21.30
2022-08-18T07:58:28.127Z,21.50
2022-08-18T08:01:22.197Z,21.60
2022-08-18T08:04:10.503Z,21.60
2022-08-18T08:07:25.479Z,21.70
2022-08-18T08:10:01.355Z,21.70
2022-08-18T08:12:37.173Z,21.90
2022-08-18T08:15:08.998Z,22.00
2022-08-18T08:18:13.269Z,22.10
2022-08-18T08:20:45.342Z,22.60
2022-08-18T08:23:35.133Z,22.90
2022-08-18T08:26:23.102Z,23.30
2022-08-18T08:28:58.859Z,23.40
2022-08-18T08:31:38.714Z,23.70
2022-08-18T08:34:45.335Z,23.80
2022-08-18T08:37:40.243Z,24.30
2022-08-18T08:40:20.532Z,24.60
2022-08-18T08:42:56.302Z,25.20
2022-08-18T08:45:33.942Z,25.30
2022-08-18T08:48:14.572Z,25.50
2022-08-18T08:50:50.850Z,25.70
2022-08-18T08:53:32.329Z,26.00
2022-08-18T08:56:08.051Z,26.30
2022-08-18T08:58:42.909Z,26.80
2022-08-18T09:01:26.181Z,26.70
2022-08-18T09:03:55.920Z,26.50
2022-08-18T09:06:27.918Z,26.00
2022-08-18T09:08:57.631Z,25.80
2022-08-18T09:11:59.139Z,26.10
2022-08-18T09:14:49.848Z,26.50
2022-08-18T09:17:55.522Z,26.70
2022-08-18T09:20:52.711Z,26.90
2022-08-18T09:23:32.558Z,27.40
2022-08-18T09:26:20.994Z,28.00
2022-08-18T09:29:15.437Z,29.30
2022-08-18T09:31:45.467Z,31.10
2022-08-18T09:34:12.847Z,31.30
2022-08-18T09:37:02.127Z,31.20
2022-08-18T09:39:56.683Z,30.70
2022-08-18T09:42:55.370Z,29.80
2022-08-18T09:45:33.489Z,29.00
2022-08-18T09:48:12.651Z,28.40
2022-08-18T09:51:18.770Z,27.80
2022-08-18T09:53:45.990Z,27.50
2022-08-18T09:56:15.065Z,27.40
2022-08-18T09:59:02.030Z,27.50
2022-08-18T10:01:30.173Z,27.70
2022-08-18T10:04:15.260Z,27.70
2022-08-18T10:06:48.229Z,27.70
2022-08-18T10:09:27.402Z,27.70
2022-08-18T10:12:33.314Z,27.50
2022-08-18T10:15:33.222Z,27.00
2022-08-18T10:18:23.699Z,27.00
2022-08-18T10:21:07.445Z,27.40
2022-08-18T10:26:54.267Z,28.10
2022-08-18T10:29:28.498Z,28.10
2022-08-18T10:31:55.481Z,28.00
2022-08-18T10:34:51.775Z,28.10
2022-08-18T10:37:39.695Z,28.00
2022-08-18T10:40:09.554Z,28.20
2022-08-18T10:42:45.331Z,28.70
2022-08-18T10:45:30.621Z,28.60
2022-08-18T10:51:09.193Z,28.70
2022-08-18T10:53:54.617Z,29.50
2022-08-18T10:56:54.439Z,29.90
2022-08-18T11:03:29.841Z,29.60
2022-08-18T11:09:01.502Z,29.40
2022-08-18T11:11:52.728Z,29.30
2022-08-18T11:14:37.635Z,28.70
2022-08-18T11:17:10.405Z,28.50
2022-08-18T11:19:42.904Z,28.90
2022-08-18T11:25:25.439Z,28.80
2022-08-18T11:27:56.426Z,28.30
2022-08-18T11:33:23.046Z,27.90
2022-08-18T11:36:01.158Z,27.90
2022-08-18T11:38:31.211Z,28.00
2022-08-18T11:41:33.224Z,28.10
2022-08-18T11:44:20.012Z,28.00
2022-08-18T11:46:51.733Z,28.20
2022-08-18T11:49:28.435Z,28.60
2022-08-18T11:52:03.423Z,29.30
2022-08-18T11:54:50.894Z,29.50
2022-08-18T12:00:45.511Z,29.20
2022-08-18T12:03:28.595Z,29.00
2022-08-18T12:06:21.563Z,28.40
2022-08-18T12:09:05.845Z,28.00
2022-08-18T12:11:36.563Z,27.80
2022-08-18T12:14:30.506Z,27.60
2022-08-18T12:17:01.916Z,27.40
2022-08-18T12:19:31.091Z,27.20
2022-08-18T12:22:00.151Z,27.10
2022-08-18T12:24:36.768Z,27.10
2022-08-18T12:27:20.847Z,27.20
2022-08-18T12:29:49.368Z,27.10
2022-08-18T12:32:18.266Z,27.00
2022-08-18T12:35:09.090Z,26.60
2022-08-18T12:40:25.803Z,25.40
2022-08-18T12:42:55.890Z,25.10
2022-08-18T12:45:24.749Z,24.90
2022-08-18T12:47:51.778Z,24.70
2022-08-18T12:50:19.844Z,24.60
2022-08-18T12:52:46.831Z,24.60
2022-08-18T12:55:21.778Z,24.40
2022-08-18T12:57:53.521Z,24.50
2022-08-18T13:00:27.854Z,24.40
2022-08-18T13:02:57.273Z,24.30
2022-08-18T13:05:26.405Z,24.20
2022-08-18T13:07:58.012Z,24.20
2022-08-18T13:10:45.849Z,24.30
2022-08-18T13:13:11.738Z,24.40
2022-08-18T13:15:38.665Z,24.60
2022-08-18T13:18:05.481Z,24.40
2022-08-18T13:20:32.315Z,24.40
2022-08-18T13:22:59.578Z,24.40
2022-08-18T13:25:32.593Z,24.30
2022-08-18T13:28:01.608Z,24.10
2022-08-18T13:30:30.919Z,24.00
2022-08-18T13:33:05.564Z,23.90
2022-08-18T13:35:48.067Z,23.80
2022-08-18T13:38:27.770Z,23.80
2022-08-18T13:40:57.666Z,23.60
2022-08-18T13:43:30.275Z,23.60
2022-08-18T13:45:57.035Z,23.60
2022-08-18T13:48:25.439Z,23.70
2022-08-18T13:50:56.605Z,23.90
2022-08-18T13:53:26.309Z,24.00
2022-08-18T13:55:57.063Z,24.10
2022-08-18T13:58:24.359Z,24.40
2022-08-18T14:01:01.852Z,24.40
2022-08-18T14:03:47.654Z,24.50
2022-08-18T14:06:15.684Z,24.70
2022-08-18T14:08:49.569Z,24.50
2022-08-18T14:11:18.682Z,24.50
2022-08-18T14:13:45.471Z,24.50
2022-08-18T14:16:18.871Z,24.40
2022-08-18T14:19:09.698Z,24.40
2022-08-18T14:22:00.937Z,24.30
2022-08-18T14:24:48.857Z,24.10
2022-08-18T14:27:17.551Z,24.10
2022-08-18T14:29:47.792Z,24.20
2022-08-18T14:32:28.339Z,24.30
2022-08-18T14:35:32.978Z,24.20
2022-08-18T14:37:47.412Z,24.00
2022-08-18T14:40:16.863Z,23.90
2022-08-18T14:42:54.864Z,23.80
2022-08-18T14:45:28.082Z,23.70
2022-08-18T14:48:06.582Z,23.70
2022-08-18T14:50:35.328Z,23.60
2022-08-18T14:53:02.318Z,23.60
2022-08-18T14:55:29.277Z,23.60
2022-08-18T14:57:59.504Z,23.50
2022-08-18T15:00:27.934Z,23.50
2022-08-18T15:02:54.931Z,23.40
2022-08-18T15:05:24.363Z,23.20
2022-08-18T15:07:52.785Z,23.10
2022-08-18T15:10:23.772Z,23.00
2022-08-18T15:12:55.241Z,22.90
2022-08-18T15:15:22.865Z,22.90
2022-08-18T15:17:52.920Z,22.90
2022-08-18T15:20:28.690Z,22.90
2022-08-18T15:23:22.773Z,22.90
2022-08-18T15:25:56.368Z,22.90
2022-08-18T15:28:26.312Z,23.00
2022-08-18T15:31:16.873Z,23.00
2022-08-18T15:33:40.125Z,23.10
2022-08-18T15:36:10.257Z,23.10
2022-08-18T15:38:38.348Z,23.20
2022-08-18T15:41:06.225Z,23.10
2022-08-18T15:43:45.903Z,23.10
2022-08-18T15:46:14.001Z,23.00
2022-08-18T15:48:43.999Z,22.90
2022-08-18T15:51:12.172Z,23.00
2022-08-18T15:53:44.568Z,22.80
2022-08-18T15:56:21.683Z,22.80
2022-08-18T15:58:49.822Z,22.80
2022-08-18T16:01:30.643Z,22.70
2022-08-18T16:04:01.261Z,22.60
2022-08-18T16:06:32.353Z,22.50
2022-08-18T16:09:00.943Z,22.50
2022-08-18T16:11:29.373Z,22.50
2022-08-18T16:14:00.987Z,22.50
2022-08-18T16:16:29.253Z,22.60
2022-08-18T16:19:05.689Z,22.60
2022-08-18T16:21:32.999Z,22.60
2022-08-18T16:23:59.741Z,22.60
2022-08-18T16:26:26.507Z,22.60
2022-08-18T16:28:53.559Z,22.60
2022-08-18T16:31:26.483Z,22.50
2022-08-18T16:33:54.817Z,22.60
2022-08-18T16:36:25.413Z,22.70
2022-08-18T16:38:53.615Z,22.70
2022-08-18T16:41:21.289Z,22.60
2022-08-18T16:43:48.188Z,22.40
2022-08-18T16:46:23.329Z,22.30
2022-08-18T16:48:50.432Z,22.00
2022-08-18T16:51:21.694Z,21.90
2022-08-18T16:53:52.065Z,22.00
2022-08-18T16:56:21.946Z,21.70
2022-08-18T16:59:07.380Z,21.60
2022-08-18T17:01:53.046Z,21.50
2022-08-18T17:04:23.257Z,21.50
2022-08-18T17:06:50.540Z,21.40
2022-08-18T17:09:18.922Z,21.30
2022-08-18T17:11:48.071Z,21.20
2022-08-18T17:14:21.306Z,21.20
2022-08-18T17:16:49.902Z,21.00
2022-08-18T17:19:17.404Z,20.90
2022-08-18T17:21:44.123Z,20.80
2022-08-18T17:24:12.330Z,20.70
2022-08-18T17:27:11.971Z,20.70
2022-08-18T17:30:07.163Z,20.60
2022-08-18T17:32:48.820Z,20.40
2022-08-18T17:35:28.672Z,20.40
2022-08-18T17:38:01.059Z,20.30
2022-08-18T17:40:39.999Z,20.30
2022-08-18T17:43:13.610Z,20.50
2022-08-18T17:45:41.049Z,20.50
2022-08-18T17:48:23.644Z,20.50
2022-08-18T17:51:15.922Z,20.60
2022-08-18T17:53:42.857Z,20.40
2022-08-18T17:56:23.248Z,20.40
2022-08-18T17:59:45.456Z,20.50
2022-08-18T18:02:29.163Z,20.40
2022-08-18T18:04:59.774Z,20.50
2022-08-18T18:07:31.239Z,20.50
2022-08-18T18:10:14.349Z,20.50
2022-08-18T18:12:41.815Z,20.50
2022-08-18T18:15:11.850Z,20.40
2022-08-18T18:17:41.281Z,20.20
2022-08-18T18:20:41.486Z,20.20
2022-08-18T18:23:20.901Z,20.20
2022-08-18T18:25:48.455Z,20.20
2022-08-18T18:28:33.360Z,20.10
2022-08-18T18:31:17.702Z,20.10
2022-08-18T18:33:45.069Z,20.10
2022-08-18T18:36:11.845Z,20.00
2022-08-18T18:38:46.394Z,20.00
2022-08-18T18:41:13.046Z,20.10
2022-08-18T18:43:46.935Z,20.00
2022-08-18T18:46:18.880Z,20.00
2022-08-18T18:48:55.441Z,20.00
2022-08-18T18:51:46.968Z,19.90
2022-08-18T18:54:22.338Z,19.90
2022-08-18T18:56:56.415Z,19.90
2022-08-18T18:59:27.102Z,19.90
2022-08-18T19:02:33.908Z,19.80
2022-08-18T19:05:18.379Z,19.80
2022-08-18T19:08:17.024Z,19.80
2022-08-18T19:11:15.820Z,19.80
2022-08-18T19:13:54.210Z,19.80
2022-08-18T19:16:23.769Z,19.80
2022-08-18T19:19:35.018Z,19.80
2022-08-18T19:21:49.321Z,19.90
2022-08-18T19:24:38.681Z,19.80
2022-08-18T19:27:10.698Z,19.90
2022-08-18T19:29:43.645Z,19.90
2022-08-18T19:32:19.844Z,19.90
2022-08-18T19:34:52.378Z,19.90
2022-08-18T19:37:31.655Z,19.90
2022-08-18T19:40:10.132Z,19.90
2022-08-18T19:42:59.405Z,19.80
2022-08-18T19:45:44.241Z,19.90
2022-08-18T19:48:27.518Z,19.80
2022-08-18T19:51:00.261Z,19.80
2022-08-18T19:54:07.748Z,19.80
2022-08-18T19:56:51.568Z,19.80
2022-08-18T19:59:35.192Z,19.70
2022-08-18T20:02:20.975Z,19.80
2022-08-18T20:05:06.502Z,19.70
2022-08-18T20:08:01.121Z,19.70
2022-08-18T20:10:54.389Z,19.70
2022-08-18T20:13:43.102Z,19.70
2022-08-18T20:16:43.942Z,19.80
2022-08-18T20:19:40.111Z,19.80
2022-08-18T20:22:27.008Z,19.80
2022-08-18T20:25:05.382Z,19.80
2022-08-18T20:27:38.026Z,19.90
2022-08-18T20:30:20.063Z,19.80
2022-08-18T20:33:14.561Z,19.90
2022-08-18T20:35:47.233Z,19.80
2022-08-18T20:38:18.030Z,19.70
2022-08-18T20:40:48.847Z,19.70
2022-08-18T20:43:31.250Z,19.70
2022-08-18T20:46:15.839Z,19.80
2022-08-18T20:49:20.266Z,19.80
2022-08-18T20:51:57.729Z,19.80
2022-08-18T20:54:42.391Z,19.80
2022-08-18T20:57:27.077Z,19.70
2022-08-18T21:00:04.006Z,19.60
2022-08-18T21:02:35.330Z,19.50
2022-08-18T21:05:02.101Z,19.40
2022-08-18T21:07:37.236Z,19.40
2022-08-18T21:10:12.946Z,19.40
2022-08-18T21:12:51.553Z,19.30
2022-08-18T21:15:21.134Z,19.40
2022-08-18T21:18:00.421Z,19.40
2022-08-18T21:20:28.586Z,19.50
2022-08-18T21:23:14.292Z,19.50
2022-08-18T21:25:54.657Z,19.50
2022-08-18T21:28:25.073Z,19.50
2022-08-18T21:31:41.523Z,19.50
2022-08-18T21:33:51.035Z,19.50
2022-08-18T21:36:20.415Z,19.50
2022-08-18T21:38:58.548Z,19.50
2022-08-18T21:41:39.224Z,19.60
2022-08-18T21:44:21.593Z,19.60
2022-08-18T21:46:49.115Z,19.60
2022-08-18T21:49:27.582Z,19.60
2022-08-18T21:51:54.662Z,19.60
2022-08-18T21:54:24.790Z,19.60
2022-08-18T21:57:21.275Z,19.50
2022-08-18T22:00:14.979Z,19.50
2022-08-18T22:02:41.742Z,19.50
2022-08-18T22:05:10.891Z,19.40
2022-08-18T22:07:46.891Z,19.40
2022-08-18T22:10:47.881Z,19.50
2022-08-18T22:13:46.416Z,19.50
2022-08-18T22:16:38.229Z,19.50
2022-08-18T22:19:07.022Z,19.40
2022-08-18T22:21:46.976Z,19.40
2022-08-18T22:24:19.310Z,19.50
2022-08-18T22:27:04.352Z,19.50
2022-08-18T22:29:49.898Z,19.50
2022-08-18T22:32:17.241Z,19.60
2022-08-18T22:34:44.093Z,19.50
2022-08-18T22:37:21.430Z,19.40
2022-08-18T22:39:59.749Z,19.30
2022-08-18T22:42:32.090Z,19.30
2022-08-18T22:45:03.351Z,19.20
2022-08-18T22:47:34.183Z,19.20
2022-08-18T22:50:11.106Z,19.20
2022-08-18T22:52:42.044Z,19.30
2022-08-18T22:55:11.801Z,19.30
2022-08-18T22:57:40.661Z,19.40
